METAR
METAR

METAR

METAR EPSY 171100Z 31005KT CAVOK 25/10 Q1014=
TAF EPSY 170830Z 1709/1718 29006KT CAVOK PROB40 TEMPO 1714/1718 -SHRA SCT040CB=
Ostrzeżenia
Ostrzeżenia

Ostrzeżenia

OSTRZEZENIE LOTNISKOWE DLA LOTNISKA SZYMANY WAZNOSC OD: 03:00 17-06-2024 UTC DO: 06:00 17-06-2024 UTC ZJAWISKO: NISKA PODSTAWA CHMUR, SLABA WIDZIALNOSC. PRZEBIEG: W REJONIE LOTNISKA EPSY OBSERWOWANE I PROGNOZOWANE SA NISKIE CHMURY W ILOSCI BKN-OVC O PODSTAWACH HD:100-500FT ORAZ SLABA WIDZIALNOSC 300-1500M OGRANICZONE PRZEZ MGLE I SILNE ZAMGLENIE OPRACOWAL: LESZEK CZAJKA DNIA 17-06-2024 02:55 UTC NR OSTRZEZENIA: 209/2024